Terminal Aerodrome Forecast
Issued by NWS

Home | Current Version | Previous Version | Text Only | Print | Product List | Glossary On
Versions: 1 2 3 4 5 6 7 8 9 10 11 12 13 14 15 16 17 18 19 20
000
FTAK31 PANC 261141
TAFATK
TAF
PATK 261141Z 2612/2712 18005KT P6SM SCT008 BKN015
      TEMPO 2612/2615 BKN008
     FM262100 36008KT P6SM FEW150=

USA.gov is the U.S. government's official web portal to all federal, state and local government web resources and services.